createdAt,value
2022-09-12T00:02:04.320Z,5.40
2022-09-12T00:05:07.441Z,5.63
2022-09-12T00:08:09.046Z,6.03
2022-09-12T00:11:11.994Z,6.15
2022-09-12T00:14:16.950Z,6.30
2022-09-12T00:17:18.641Z,7.05
2022-09-12T00:20:20.242Z,7.15
2022-09-12T00:23:21.993Z,7.60
2022-09-12T00:26:23.597Z,6.25
2022-09-12T00:29:25.333Z,6.43
2022-09-12T00:32:26.891Z,7.07
2022-09-12T00:35:28.469Z,7.15
2022-09-12T00:38:30.030Z,7.75
2022-09-12T00:41:34.770Z,7.13
2022-09-12T00:44:39.083Z,7.65
2022-09-12T00:47:41.877Z,7.18
2022-09-12T00:50:43.547Z,7.70
2022-09-12T00:53:48.283Z,7.38
2022-09-12T00:56:53.129Z,8.60
2022-09-12T01:00:16.577Z,6.70
2022-09-12T01:03:20.484Z,6.72
2022-09-12T01:06:27.266Z,6.53
2022-09-12T01:09:28.833Z,6.32
2022-09-12T01:12:31.697Z,5.97
2022-09-12T01:15:34.010Z,6.55
2022-09-12T01:18:50.128Z,6.53
2022-09-12T01:22:29.328Z,5.57
2022-09-12T01:26:02.869Z,5.35
2022-09-12T01:29:42.173Z,5.60
2022-09-12T01:33:00.705Z,5.00
2022-09-12T01:36:02.175Z,5.63
2022-09-12T01:39:27.794Z,6.60
2022-09-12T01:42:53.751Z,6.30
2022-09-12T01:46:15.757Z,6.68
2022-09-12T01:49:24.734Z,6.32
2022-09-12T01:52:32.492Z,6.05
2022-09-12T01:55:41.488Z,5.55
2022-09-12T01:58:53.401Z,5.55
2022-09-12T02:02:07.375Z,5.57
2022-09-12T02:05:20.626Z,5.82
2022-09-12T02:08:28.430Z,6.20
2022-09-12T02:11:34.171Z,6.03
2022-09-12T02:14:46.614Z,6.53
2022-09-12T02:17:51.610Z,6.40
2022-09-12T02:20:56.034Z,6.22
2022-09-12T02:24:02.300Z,7.13
2022-09-12T02:27:07.590Z,6.43
2022-09-12T02:30:10.310Z,6.22
2022-09-12T02:33:24.444Z,6.72
2022-09-12T02:36:35.041Z,6.75
2022-09-12T02:39:37.091Z,6.13
2022-09-12T02:42:38.831Z,6.25
2022-09-12T02:45:40.717Z,5.97
2022-09-12T02:48:43.707Z,6.75
2022-09-12T02:51:46.259Z,6.97
2022-09-12T02:54:48.655Z,6.55
2022-09-12T02:57:50.198Z,7.27
2022-09-12T03:00:55.063Z,7.60
2022-09-12T03:04:05.527Z,6.38
2022-09-12T03:07:26.701Z,6.45
2022-09-12T03:10:40.554Z,7.03
2022-09-12T03:14:02.004Z,6.53
2022-09-12T03:17:20.920Z,5.78
2022-09-12T03:20:29.833Z,5.65
2022-09-12T03:23:40.977Z,9.60
2022-09-12T03:26:54.428Z,6.30
2022-09-12T03:32:57.706Z,5.63
2022-09-12T03:35:59.398Z,5.50
2022-09-12T03:39:00.953Z,6.65
2022-09-12T03:42:02.542Z,6.93
2022-09-12T03:45:05.899Z,5.47
2022-09-12T03:48:07.618Z,6.70
2022-09-12T03:51:10.988Z,7.28
2022-09-12T03:54:12.678Z,7.72
2022-09-12T03:57:14.303Z,6.65
2022-09-12T04:00:19.716Z,7.53
2022-09-12T04:03:21.604Z,6.18
2022-09-12T04:06:23.260Z,5.85
2022-09-12T04:09:24.854Z,5.75
2022-09-12T04:12:26.430Z,6.07
2022-09-12T04:15:28.042Z,6.22
2022-09-12T04:18:29.617Z,8.13
2022-09-12T04:21:31.354Z,6.60
2022-09-12T04:24:33.005Z,6.97
2022-09-12T04:27:34.594Z,7.68
2022-09-12T04:30:36.215Z,6.60
2022-09-12T04:33:38.259Z,6.40
2022-09-12T04:36:39.908Z,7.10
2022-09-12T04:39:41.539Z,5.78
2022-09-12T04:42:43.165Z,6.70
2022-09-12T04:45:44.833Z,6.63
2022-09-12T04:48:48.351Z,7.22
2022-09-12T04:51:53.258Z,6.95
2022-09-12T04:54:54.918Z,6.32
2022-09-12T04:57:56.537Z,7.53
2022-09-12T05:01:04.913Z,6.78
2022-09-12T05:04:06.627Z,6.25
2022-09-12T05:07:08.255Z,6.65
2022-09-12T05:10:10.129Z,6.53
2022-09-12T05:13:11.734Z,6.90
2022-09-12T05:16:15.961Z,6.18
2022-09-12T05:19:17.702Z,5.72
2022-09-12T05:22:19.359Z,5.63
2022-09-12T05:25:20.967Z,5.93
2022-09-12T05:28:22.762Z,5.97
2022-09-12T05:31:26.764Z,5.50
2022-09-12T05:34:28.402Z,5.28
2022-09-12T05:37:30.288Z,5.78
2022-09-12T05:40:32.230Z,6.05
2022-09-12T05:43:35.161Z,5.93
2022-09-12T05:46:39.485Z,5.35
2022-09-12T05:49:41.744Z,4.72
2022-09-12T05:52:43.718Z,5.63
2022-09-12T05:55:45.460Z,5.32
2022-09-12T05:58:52.445Z,5.50
2022-09-12T06:01:54.057Z,5.20
2022-09-12T06:04:55.625Z,5.05
2022-09-12T06:07:57.182Z,5.80
2022-09-12T06:11:04.018Z,4.43
2022-09-12T06:14:05.725Z,4.10
2022-09-12T06:17:07.306Z,4.10
2022-09-12T06:20:09.120Z,5.30
2022-09-12T06:23:10.681Z,4.30
2022-09-12T06:26:13.233Z,4.10
2022-09-12T06:29:15.480Z,4.50
2022-09-12T06:32:17.117Z,5.13
2022-09-12T06:35:19.059Z,4.22
2022-09-12T06:38:20.638Z,4.45
2022-09-12T06:41:22.513Z,5.22
2022-09-12T06:44:24.266Z,4.55
2022-09-12T06:47:25.983Z,4.20
2022-09-12T06:50:28.083Z,3.97
2022-09-12T06:53:30.964Z,3.85
2022-09-12T06:56:32.555Z,3.42
2022-09-12T06:59:34.211Z,3.38
2022-09-12T07:02:35.804Z,4.00
2022-09-12T07:05:37.502Z,4.88
2022-09-12T07:08:40.851Z,3.65
2022-09-12T07:11:43.325Z,3.70
2022-09-12T07:14:44.992Z,4.03
2022-09-12T07:17:46.597Z,4.30
2022-09-12T07:20:48.210Z,3.92
2022-09-12T07:23:51.947Z,3.70
2022-09-12T07:26:53.563Z,3.72
2022-09-12T07:29:55.183Z,3.90
2022-09-12T07:32:56.747Z,3.83
2022-09-12T07:36:03.907Z,4.07
2022-09-12T07:39:05.968Z,4.38
2022-09-12T07:42:07.851Z,4.40
2022-09-12T07:45:10.280Z,4.10
2022-09-12T07:48:11.934Z,4.13
2022-09-12T07:51:13.502Z,4.40
2022-09-12T07:54:15.838Z,4.68
2022-09-12T07:57:17.414Z,5.00
2022-09-12T08:00:19.395Z,4.93
2022-09-12T08:03:21.022Z,4.45
2022-09-12T08:06:26.435Z,4.90
2022-09-12T08:09:27.996Z,5.45
2022-09-12T08:12:29.871Z,5.28
2022-09-12T08:15:31.549Z,4.97
2022-09-12T08:18:34.795Z,5.05
2022-09-12T08:21:36.359Z,5.50
2022-09-12T08:24:39.674Z,5.68
2022-09-12T08:27:43.067Z,5.00
2022-09-12T08:30:44.632Z,5.03
2022-09-12T08:33:46.472Z,5.05
2022-09-12T08:36:48.297Z,5.20
2022-09-12T08:39:49.995Z,5.00
2022-09-12T08:43:08.042Z,5.05
2022-09-12T08:46:21.667Z,4.70
2022-09-12T08:50:09.603Z,4.50
2022-09-12T08:53:18.106Z,4.75
2022-09-12T08:56:19.759Z,4.53
2022-09-12T08:59:21.315Z,5.07
2022-09-12T09:02:50.846Z,4.90
2022-09-12T09:06:29.462Z,4.53
2022-09-12T09:10:01.657Z,4.82
2022-09-12T09:13:41.265Z,4.70
2022-09-12T09:16:45.014Z,5.00
2022-09-12T09:19:51.346Z,5.43
2022-09-12T09:22:58.171Z,5.38
2022-09-12T09:26:10.959Z,4.90
2022-09-12T09:29:19.752Z,4.97
2022-09-12T09:32:31.430Z,5.18
2022-09-12T09:35:46.458Z,4.53
2022-09-12T09:39:05.990Z,5.30
2022-09-12T09:42:25.029Z,5.50
2022-09-12T09:45:29.814Z,5.28
2022-09-12T09:48:34.948Z,4.57
2022-09-12T09:51:39.298Z,5.18
2022-09-12T09:55:01.794Z,4.93
2022-09-12T09:58:04.093Z,5.10
2022-09-12T10:01:13.603Z,5.15
2022-09-12T10:04:20.665Z,6.43
2022-09-12T10:07:23.587Z,6.20
2022-09-12T10:10:25.518Z,6.50
2022-09-12T10:13:56.919Z,7.20
2022-09-12T10:16:59.514Z,6.18
2022-09-12T10:20:20.442Z,6.00
2022-09-12T10:23:37.881Z,6.10
2022-09-12T10:26:40.632Z,6.68
2022-09-12T10:32:51.447Z,6.00
2022-09-12T10:35:54.719Z,6.53
2022-09-12T10:39:00.708Z,6.68
2022-09-12T10:42:03.730Z,6.85
2022-09-12T10:45:06.700Z,6.18
2022-09-12T10:48:29.722Z,6.10
2022-09-12T10:54:34.482Z,6.05
2022-09-12T10:58:07.413Z,5.75
2022-09-12T11:01:28.216Z,6.20
2022-09-12T11:04:40.655Z,5.57
2022-09-12T11:07:51.085Z,5.57
2022-09-12T11:11:02.702Z,6.03
2022-09-12T11:14:07.211Z,5.93
2022-09-12T11:17:22.831Z,5.72
2022-09-12T11:20:39.027Z,5.32
2022-09-12T11:23:52.901Z,5.32
2022-09-12T11:27:05.212Z,5.60
2022-09-12T11:30:13.262Z,5.32
2022-09-12T11:33:23.917Z,5.70
2022-09-12T11:36:36.300Z,4.80
2022-09-12T11:39:44.764Z,4.78
2022-09-12T11:42:49.664Z,4.28
2022-09-12T11:45:52.606Z,4.88
2022-09-12T11:48:57.349Z,4.88
2022-09-12T11:52:10.955Z,4.85
2022-09-12T11:55:18.645Z,5.10
2022-09-12T11:58:24.837Z,5.72
2022-09-12T12:01:32.027Z,5.00
2022-09-12T12:04:41.350Z,4.90
2022-09-12T12:08:07.313Z,4.70
2022-09-12T12:11:10.468Z,5.00
2022-09-12T12:14:36.279Z,4.70
2022-09-12T12:17:38.081Z,5.05
2022-09-12T12:20:39.848Z,4.53
2022-09-12T12:24:10.015Z,4.28
2022-09-12T12:27:25.562Z,4.65
2022-09-12T12:30:30.430Z,4.35
2022-09-12T12:33:31.990Z,4.68
2022-09-12T12:36:40.359Z,12.43
2022-09-12T12:39:42.046Z,4.13
2022-09-12T12:42:43.689Z,4.43
2022-09-12T12:45:48.925Z,4.53
2022-09-12T12:48:58.162Z,4.40
2022-09-12T12:52:03.874Z,4.18
2022-09-12T12:55:06.086Z,4.13
2022-09-12T12:58:18.463Z,6.50
2022-09-12T13:01:23.004Z,4.10
2022-09-12T13:04:31.322Z,4.50
2022-09-12T13:07:37.629Z,3.85
2022-09-12T13:10:48.592Z,3.83
2022-09-12T13:13:53.389Z,4.30
2022-09-12T13:16:58.397Z,4.25
2022-09-12T13:20:29.471Z,4.50
2022-09-12T13:23:32.685Z,4.40
2022-09-12T13:26:40.782Z,3.97
2022-09-12T13:29:42.412Z,4.30
2022-09-12T13:32:44.239Z,4.32
2022-09-12T13:36:17.592Z,3.78
2022-09-12T13:39:19.404Z,4.40
2022-09-12T13:42:21.064Z,4.75
2022-09-12T13:45:25.050Z,4.60
2022-09-12T13:48:26.680Z,4.65
2022-09-12T13:51:31.076Z,4.65
2022-09-12T13:54:37.923Z,4.57
2022-09-12T13:57:41.336Z,4.72
2022-09-12T14:00:42.964Z,4.13
2022-09-12T14:04:10.554Z,4.25
2022-09-12T14:07:22.180Z,4.53
2022-09-12T14:10:28.151Z,4.77
2022-09-12T14:13:32.148Z,4.85
2022-09-12T14:16:39.992Z,4.68
2022-09-12T14:19:43.684Z,3.95
2022-09-12T14:22:50.941Z,4.53
2022-09-12T14:25:54.471Z,4.57
2022-09-12T14:28:56.358Z,4.32
2022-09-12T14:32:05.781Z,4.47
2022-09-12T14:35:19.687Z,3.83
2022-09-12T14:38:31.282Z,4.28
2022-09-12T14:41:38.413Z,3.80
2022-09-12T14:44:52.542Z,4.30
2022-09-12T14:47:54.553Z,3.75
2022-09-12T14:50:56.567Z,4.35
2022-09-12T14:53:59.520Z,4.10
2022-09-12T14:57:25.861Z,4.00
2022-09-12T15:00:27.952Z,3.70
2022-09-12T15:03:34.299Z,4.20
2022-09-12T15:06:38.961Z,4.40
2022-09-12T15:09:44.109Z,3.58
2022-09-12T15:12:49.288Z,3.92
2022-09-12T15:15:56.318Z,3.45
2022-09-12T15:18:57.911Z,3.92
2022-09-12T15:21:59.578Z,3.63
2022-09-12T15:25:01.156Z,3.60
2022-09-12T15:28:13.380Z,3.20
2022-09-12T15:31:27.985Z,3.55
2022-09-12T15:34:29.568Z,3.38
2022-09-12T15:37:31.226Z,3.67
2022-09-12T15:40:32.941Z,3.33
2022-09-12T15:43:34.481Z,3.70
2022-09-12T15:46:36.640Z,3.10
2022-09-12T15:49:39.679Z,3.47
2022-09-12T15:52:41.765Z,3.20
2022-09-12T15:55:43.951Z,3.67
2022-09-12T15:58:59.120Z,3.08
2022-09-12T16:02:02.536Z,3.15
2022-09-12T16:05:04.849Z,3.50
2022-09-12T16:08:06.394Z,3.00
2022-09-12T16:11:19.895Z,3.53
2022-09-12T16:14:21.478Z,3.42
2022-09-12T16:17:23.222Z,2.97
2022-09-12T16:20:24.927Z,3.17
2022-09-12T16:23:26.649Z,3.23
2022-09-12T16:26:28.258Z,3.23
2022-09-12T16:29:30.043Z,3.25
2022-09-12T16:32:31.693Z,3.50
2022-09-12T16:35:33.296Z,2.90
2022-09-12T16:38:35.864Z,3.00
2022-09-12T16:41:37.568Z,3.20
2022-09-12T16:44:39.121Z,3.45
2022-09-12T16:47:40.687Z,3.30
2022-09-12T16:50:42.242Z,3.30
2022-09-12T16:53:43.787Z,3.22
2022-09-12T16:56:46.620Z,3.15
2022-09-12T16:59:48.309Z,2.90
2022-09-12T17:02:49.927Z,3.47
2022-09-12T17:06:05.650Z,3.25
2022-09-12T17:09:07.660Z,3.05
2022-09-12T17:12:09.471Z,3.03
2022-09-12T17:15:11.724Z,3.17
2022-09-12T17:18:13.445Z,3.38
2022-09-12T17:21:15.613Z,3.30
2022-09-12T17:24:18.046Z,3.30
2022-09-12T17:27:19.646Z,3.17
2022-09-12T17:30:21.187Z,3.03
2022-09-12T17:33:23.004Z,3.20
2022-09-12T17:36:24.996Z,3.30
2022-09-12T17:39:29.418Z,3.37
2022-09-12T17:42:31.512Z,3.40
2022-09-12T17:45:33.090Z,3.25
2022-09-12T17:48:35.096Z,3.35
2022-09-12T17:51:36.788Z,3.50
2022-09-12T17:54:38.450Z,3.20
2022-09-12T17:57:40.233Z,3.63
2022-09-12T18:01:00.775Z,3.67
2022-09-12T18:04:03.463Z,3.75
2022-09-12T18:07:05.196Z,3.65
2022-09-12T18:10:07.232Z,3.85
2022-09-12T18:13:08.949Z,3.80
2022-09-12T18:16:11.918Z,3.92
2022-09-12T18:19:14.403Z,4.20
2022-09-12T18:22:15.960Z,5.28
2022-09-12T18:25:17.669Z,4.30
2022-09-12T18:28:19.559Z,7.93
2022-09-12T18:31:23.540Z,3.80
2022-09-12T18:34:25.531Z,4.10
2022-09-12T18:37:27.310Z,3.90
2022-09-12T18:40:28.858Z,4.50
2022-09-12T18:43:30.483Z,4.13
2022-09-12T18:46:34.735Z,4.93
2022-09-12T18:49:36.386Z,6.25
2022-09-12T18:52:37.970Z,7.97
2022-09-12T18:55:39.502Z,4.38
2022-09-12T18:58:43.380Z,4.30
2022-09-12T19:01:45.123Z,4.43
2022-09-12T19:04:46.859Z,5.05
2022-09-12T19:07:48.466Z,7.82
2022-09-12T19:10:56.871Z,4.15
2022-09-12T19:13:58.533Z,4.70
2022-09-12T19:17:00.225Z,5.30
2022-09-12T19:20:02.108Z,4.80
2022-09-12T19:23:03.881Z,5.10
2022-09-12T19:26:08.130Z,5.68
2022-09-12T19:29:11.737Z,4.05
2022-09-12T19:32:13.355Z,4.45
2022-09-12T19:35:15.044Z,3.92
2022-09-12T19:38:17.609Z,4.30
2022-09-12T19:41:19.490Z,4.57
2022-09-12T19:44:21.342Z,4.45
2022-09-12T19:47:25.207Z,4.07
2022-09-12T19:50:27.437Z,4.50
2022-09-12T19:53:29.965Z,4.83
2022-09-12T19:56:31.504Z,5.13
2022-09-12T19:59:33.075Z,5.13
2022-09-12T20:02:34.652Z,4.47
2022-09-12T20:05:40.741Z,4.25
2022-09-12T20:08:44.897Z,5.20
2022-09-12T20:11:46.686Z,4.57
2022-09-12T20:14:48.771Z,5.95
2022-09-12T20:17:55.010Z,5.93
2022-09-12T20:20:56.551Z,4.45
2022-09-12T20:24:02.517Z,5.38
2022-09-12T20:27:04.126Z,4.53
2022-09-12T20:30:06.146Z,4.97
2022-09-12T20:33:07.787Z,5.07
2022-09-12T20:36:20.075Z,5.20
2022-09-12T20:39:23.039Z,5.15
2022-09-12T20:42:24.799Z,4.90
2022-09-12T20:45:26.352Z,4.68
2022-09-12T20:48:28.002Z,5.30
2022-09-12T20:51:30.434Z,5.20
2022-09-12T20:54:32.090Z,4.88
2022-09-12T20:57:33.731Z,4.70
2022-09-12T21:00:35.301Z,6.13
2022-09-12T21:03:44.110Z,5.28
2022-09-12T21:06:45.778Z,4.65
2022-09-12T21:09:47.572Z,4.88
2022-09-12T21:12:49.169Z,5.10
2022-09-12T21:16:00.642Z,4.90
2022-09-12T21:19:02.245Z,5.18
2022-09-12T21:22:03.822Z,5.43
2022-09-12T21:25:05.900Z,5.30
2022-09-12T21:28:07.491Z,4.85
2022-09-12T21:31:09.199Z,4.50
2022-09-12T21:34:10.864Z,5.10
2022-09-12T21:37:12.518Z,5.00
2022-09-12T21:40:14.151Z,5.03
2022-09-12T21:43:15.815Z,5.25
2022-09-12T21:46:17.428Z,5.13
2022-09-12T21:49:19.051Z,5.22
2022-09-12T21:52:20.900Z,4.97
2022-09-12T21:55:27.171Z,4.80
2022-09-12T21:58:28.761Z,5.53
2022-09-12T22:01:30.388Z,5.80
2022-09-12T22:04:32.916Z,5.43
2022-09-12T22:07:34.570Z,4.90
2022-09-12T22:10:36.260Z,4.60
2022-09-12T22:13:39.721Z,4.95
2022-09-12T22:16:41.249Z,5.03
2022-09-12T22:19:42.824Z,4.75
2022-09-12T22:23:02.611Z,5.13
2022-09-12T22:26:04.193Z,4.68
2022-09-12T22:29:05.760Z,5.60
2022-09-12T22:32:07.297Z,5.15
2022-09-12T22:35:09.089Z,5.18
2022-09-12T22:38:10.966Z,5.00
2022-09-12T22:41:13.201Z,5.40
2022-09-12T22:44:14.853Z,4.83
2022-09-12T22:47:16.450Z,5.07
2022-09-12T22:50:18.047Z,5.32
2022-09-12T22:53:19.778Z,5.20
2022-09-12T22:56:21.686Z,4.95
2022-09-12T22:59:23.291Z,5.00
2022-09-12T23:02:24.900Z,4.90
2022-09-12T23:05:26.469Z,5.72
2022-09-12T23:08:29.669Z,5.60
2022-09-12T23:11:31.384Z,5.47
2022-09-12T23:14:32.953Z,5.20
2022-09-12T23:17:35.158Z,5.18
2022-09-12T23:20:36.789Z,5.33
2022-09-12T23:23:38.789Z,5.15
2022-09-12T23:26:40.384Z,5.60
2022-09-12T23:29:41.949Z,5.03
2022-09-12T23:32:44.725Z,5.30
2022-09-12T23:35:46.498Z,5.25
2022-09-12T23:38:48.493Z,5.28
2022-09-12T23:41:50.434Z,4.72
2022-09-12T23:44:51.986Z,5.00
2022-09-12T23:47:53.532Z,5.30
2022-09-12T23:50:55.122Z,5.57
2022-09-12T23:53:56.746Z,5.60
2022-09-12T23:56:58.322Z,5.35
2022-09-12T23:59:59.924Z,5.60
